Lynchburg Regional Preston Glenn Field Lynchburg US
ICAO: KLYH
IATA: LYH
Category: Medium
Scheduled Services: Yes

Elevation: 938 ft
TransAlt. 18000 ft.

Airport Communications:
ROANOKE APP/DEP:125.47
ATIS:119.8
CTAF:127.65
GND:121.9
LEESBURG RDO:109.2
TWR:127.65
UNICOM:122.95

KLYH Zoom In..

Runways:

(A) RW 04 length 7100 ft width 150 ft
ILS 110.10 / hdg 36

(B) RW 17 length 3386 ft width 75 ft
---- / hdg 170

(C) RW 22 length 7100 ft width 150 ft
---- / hdg 216

(D) RW 35 length 3386 ft width 75 ft
---- / hdg 350

Location; KLYH
Day. 22 / Time. 01.54 Zulu
* Altimeter: 30.18
* Temperature: 19° c. 66.2°f.
* Wind from: 250° Speed 03 kn.
Dewpoint: 18° c.
Visibility: 7 Statute Miles.
Clouds: Few 5500 ft.
Clouds: Scattered 7000 ft.
Clouds: Overcast 9000 ft.
Conditions: Light Rain.

KLYH 220154Z 25003KT 7SM VCTS -RA FEW055 SCT070 OVC090 19/18 A3018 RMK AO2 PK WND 10027/0102 LTG DSNT W-NE TSE42 SLP210 P0089 T01890183


Wind From 250°
Speed 03 kn.

 
 
jpsmedia.com for Web Design SOUNDCLOUD worldairports.se 2018   terms of use